createdAt,value
2024-04-08T00:53:15.065Z,82.50
2024-04-08T00:56:19.896Z,82.70
2024-04-08T00:59:23.817Z,82.60
2024-04-08T01:02:25.776Z,82.50
2024-04-08T01:05:28.032Z,82.30
2024-04-08T01:08:29.869Z,82.40
2024-04-08T01:11:32.156Z,82.80
2024-04-08T01:14:34.418Z,82.90
2024-04-08T01:17:36.399Z,82.80
2024-04-08T01:20:38.319Z,82.90
2024-04-08T01:23:42.600Z,82.70
2024-04-08T01:26:44.510Z,82.70
2024-04-08T01:29:46.415Z,82.80
2024-04-08T01:32:48.264Z,82.80
2024-04-08T01:35:50.050Z,82.70
2024-04-08T01:38:51.838Z,82.80
2024-04-08T01:41:53.592Z,82.90
2024-04-08T01:44:55.321Z,82.90
2024-04-08T01:47:57.134Z,83.00
2024-04-08T01:50:58.914Z,82.90
2024-04-08T01:54:00.714Z,82.70
2024-04-08T01:57:02.726Z,82.50
2024-04-08T02:00:06.025Z,82.60
2024-04-08T02:03:07.806Z,82.80
2024-04-08T02:06:09.550Z,82.70
2024-04-08T02:09:11.305Z,82.80
2024-04-08T02:12:13.089Z,82.70
2024-04-08T02:15:15.044Z,82.80
2024-04-08T02:18:16.996Z,82.90
2024-04-08T02:21:18.757Z,83.00
2024-04-08T02:24:20.685Z,82.50
2024-04-08T02:27:22.451Z,82.90
2024-04-08T02:30:24.353Z,82.90
2024-04-08T02:33:29.107Z,82.70
2024-04-08T02:36:30.969Z,82.40
2024-04-08T02:39:32.760Z,82.40
2024-04-08T02:42:34.520Z,81.90
2024-04-08T02:45:36.296Z,81.60
2024-04-08T02:48:39.336Z,81.30
2024-04-08T02:51:41.133Z,80.80
2024-04-08T02:54:42.889Z,80.50
2024-04-08T02:57:44.615Z,80.30
2024-04-08T03:00:46.673Z,80.90
2024-04-08T03:03:48.528Z,80.60
2024-04-08T03:06:50.270Z,80.10
2024-04-08T03:09:55.654Z,80.00
2024-04-08T03:12:57.379Z,80.50
2024-04-08T03:15:59.209Z,80.80
2024-04-08T03:19:01.074Z,80.40
2024-04-08T03:22:02.942Z,79.60
2024-04-08T03:25:04.974Z,78.30
2024-04-08T03:28:06.856Z,77.40
2024-04-08T03:31:08.980Z,77.00
2024-04-08T03:34:10.758Z,77.20
2024-04-08T03:37:12.757Z,77.20
2024-04-08T03:40:14.576Z,77.10
2024-04-08T03:43:17.295Z,77.10
2024-04-08T03:46:20.678Z,76.70
2024-04-08T03:49:22.462Z,76.40
2024-04-08T03:52:24.319Z,76.20
2024-04-08T03:55:30.915Z,76.00
2024-04-08T03:58:32.772Z,76.20
2024-04-08T04:01:34.538Z,76.30
2024-04-08T04:04:36.267Z,76.50
2024-04-08T04:07:38.814Z,76.60
2024-04-08T04:10:40.603Z,76.80
2024-04-08T04:13:42.365Z,76.60
2024-04-08T04:16:44.131Z,77.00
2024-04-08T04:19:46.175Z,76.70
2024-04-08T04:22:48.149Z,76.60
2024-04-08T04:25:54.752Z,77.00
2024-04-08T04:28:56.529Z,77.00
2024-04-08T04:31:58.303Z,76.90
2024-04-08T04:35:00.238Z,77.40
2024-04-08T04:38:02.349Z,77.90
2024-04-08T04:41:08.209Z,77.90
2024-04-08T04:44:10.003Z,77.80
2024-04-08T04:47:11.805Z,77.90
2024-04-08T04:50:13.576Z,78.00
2024-04-08T04:53:15.389Z,78.30
2024-04-08T04:56:17.202Z,78.50
2024-04-08T04:59:18.953Z,79.10
2024-04-08T05:02:21.234Z,79.40
2024-04-08T05:05:23.108Z,79.70
2024-04-08T05:08:25.242Z,79.90
2024-04-08T05:11:27.006Z,80.10
2024-04-08T05:14:28.800Z,80.30
2024-04-08T05:17:30.726Z,80.30
2024-04-08T05:20:32.572Z,80.40
2024-04-08T05:23:34.426Z,80.50
2024-04-08T05:26:36.215Z,80.40
2024-04-08T05:29:38.070Z,80.50
2024-04-08T05:32:39.909Z,80.40
2024-04-08T05:35:42.786Z,80.30
2024-04-08T05:38:44.607Z,80.10
2024-04-08T05:41:46.524Z,80.00
2024-04-08T05:44:48.436Z,79.90
2024-04-08T05:47:55.423Z,79.50
2024-04-08T05:50:58.275Z,79.10
2024-04-08T05:54:00.267Z,78.90
2024-04-08T05:57:02.958Z,78.30
2024-04-08T06:00:07.553Z,77.90
2024-04-08T06:03:09.300Z,77.60
2024-04-08T06:06:20.431Z,77.10
2024-04-08T06:09:22.169Z,77.00
2024-04-08T06:12:24.249Z,76.70
2024-04-08T06:15:26.392Z,76.20
2024-04-08T06:18:28.137Z,75.80
2024-04-08T06:21:30.031Z,75.80
2024-04-08T06:24:31.860Z,75.30
2024-04-08T06:27:34.095Z,74.70
2024-04-08T06:30:35.862Z,74.80
2024-04-08T06:33:37.636Z,74.00
2024-04-08T06:36:39.398Z,73.40
2024-04-08T06:39:41.120Z,72.30
2024-04-08T06:42:42.833Z,71.80
2024-04-08T06:45:44.582Z,71.40
2024-04-08T06:48:46.439Z,70.90
2024-04-08T06:51:48.180Z,70.20
2024-04-08T06:54:49.959Z,69.50
2024-04-08T06:57:51.877Z,68.60
2024-04-08T07:00:53.806Z,68.70
2024-04-08T07:03:55.578Z,68.50
2024-04-08T07:06:57.956Z,68.00
2024-04-08T07:09:59.966Z,66.80
2024-04-08T07:13:01.832Z,66.80
2024-04-08T07:16:05.030Z,65.30
2024-04-08T07:19:06.915Z,65.00
2024-04-08T07:22:08.871Z,64.80
2024-04-08T07:25:10.721Z,64.10
2024-04-08T07:28:12.690Z,64.90
2024-04-08T07:31:14.560Z,63.10
2024-04-08T07:34:21.089Z,62.50
2024-04-08T07:37:22.996Z,61.30
2024-04-08T07:40:24.759Z,60.90
2024-04-08T07:43:26.547Z,60.00
2024-04-08T07:46:28.839Z,59.30
2024-04-08T07:49:30.723Z,59.20
2024-04-08T07:52:33.420Z,59.00
2024-04-08T07:55:35.249Z,58.20
2024-04-08T07:58:37.217Z,58.70
2024-04-08T08:01:39.100Z,57.50
2024-04-08T08:04:40.885Z,58.10
2024-04-08T08:07:42.654Z,57.30
2024-04-08T08:10:46.207Z,56.40
2024-04-08T08:13:48.042Z,55.70
2024-04-08T08:16:49.864Z,54.40
2024-04-08T08:19:52.319Z,54.50
2024-04-08T08:22:57.900Z,56.10
2024-04-08T08:26:01.382Z,55.30
2024-04-08T08:29:03.267Z,55.00
2024-04-08T08:32:05.621Z,54.70
2024-04-08T08:35:07.719Z,53.50
2024-04-08T08:38:10.502Z,53.00
2024-04-08T08:41:12.960Z,53.30
2024-04-08T08:44:14.874Z,52.00
2024-04-08T08:47:16.960Z,51.60
2024-04-08T08:50:18.766Z,51.50
2024-04-08T08:53:20.604Z,51.00
2024-04-08T08:56:24.068Z,50.50
2024-04-08T08:59:26.633Z,49.60
2024-04-08T09:02:28.586Z,48.30
2024-04-08T09:05:30.340Z,48.00
2024-04-08T09:08:33.503Z,48.20
2024-04-08T09:11:45.581Z,48.80
2024-04-08T09:14:52.479Z,48.80
2024-04-08T09:18:04.796Z,47.80
2024-04-08T09:21:07.026Z,48.80
2024-04-08T09:24:09.394Z,48.60
2024-04-08T09:27:12.194Z,49.00
2024-04-08T09:30:13.978Z,49.10
2024-04-08T09:33:15.988Z,49.60
2024-04-08T09:36:18.637Z,49.80
2024-04-08T09:39:21.764Z,49.50
2024-04-08T09:42:25.519Z,49.70
2024-04-08T09:45:27.327Z,48.70
2024-04-08T09:48:31.618Z,48.90
2024-04-08T09:51:34.322Z,49.30
2024-04-08T09:54:37.142Z,49.30
2024-04-08T09:57:42.912Z,48.90
2024-04-08T10:00:46.738Z,48.60
2024-04-08T10:03:52.743Z,48.70
2024-04-08T10:06:57.196Z,48.00
2024-04-08T10:10:02.442Z,48.40
2024-04-08T10:13:04.293Z,47.30
2024-04-08T10:16:13.741Z,47.50
2024-04-08T10:19:15.742Z,47.90
2024-04-08T10:22:21.778Z,47.00
2024-04-08T10:25:39.600Z,46.30
2024-04-08T10:28:42.892Z,46.00
2024-04-08T10:31:44.675Z,45.80
2024-04-08T10:34:46.593Z,45.40
2024-04-08T10:37:48.346Z,45.50
2024-04-08T10:40:50.284Z,45.70
2024-04-08T10:43:52.171Z,46.60
2024-04-08T10:46:55.055Z,45.10
2024-04-08T10:49:56.842Z,44.30
2024-04-08T10:52:58.938Z,45.60
2024-04-08T10:56:01.810Z,43.80
2024-04-08T10:59:03.704Z,44.50
2024-04-08T11:02:14.922Z,43.00
2024-04-08T11:05:17.406Z,43.20
2024-04-08T11:08:20.489Z,43.70
2024-04-08T11:11:27.326Z,42.10
2024-04-08T11:14:29.966Z,42.50
2024-04-08T11:17:32.368Z,41.70
2024-04-08T11:20:34.370Z,41.40
2024-04-08T11:23:42.170Z,42.30
2024-04-08T11:26:52.696Z,42.00
2024-04-08T11:30:00.654Z,42.20
2024-04-08T11:33:04.395Z,41.60
2024-04-08T11:36:08.431Z,41.80
2024-04-08T11:39:10.320Z,41.90
2024-04-08T11:42:13.287Z,42.10
2024-04-08T11:45:15.262Z,41.50
2024-04-08T11:48:18.528Z,42.40
2024-04-08T11:51:20.501Z,41.40
2024-04-08T11:54:22.426Z,41.60
2024-04-08T11:57:24.239Z,40.60
2024-04-08T12:00:27.309Z,39.40
2024-04-08T12:03:29.126Z,40.30
2024-04-08T12:06:31.367Z,38.60
2024-04-08T12:09:33.154Z,38.90
2024-04-08T12:12:34.942Z,38.30
2024-04-08T12:15:36.663Z,39.40
2024-04-08T12:18:38.470Z,38.90
2024-04-08T12:21:40.370Z,38.90
2024-04-08T12:24:44.086Z,38.40
2024-04-08T12:27:45.917Z,38.90
2024-04-08T12:30:48.740Z,38.80
2024-04-08T12:33:50.548Z,38.80
2024-04-08T12:36:52.599Z,38.40
2024-04-08T12:39:54.342Z,37.60
2024-04-08T12:42:56.154Z,37.30
2024-04-08T12:45:57.896Z,38.10
2024-04-08T12:48:59.854Z,37.60
2024-04-08T12:52:01.854Z,37.50
2024-04-08T12:55:04.385Z,36.80
2024-04-08T12:58:11.399Z,35.50
2024-04-08T13:01:13.253Z,36.30
2024-04-08T13:04:15.219Z,35.00
2024-04-08T13:07:17.378Z,35.00
2024-04-08T13:10:19.201Z,35.50
2024-04-08T13:13:20.959Z,35.20
2024-04-08T13:16:22.875Z,35.10
2024-04-08T13:19:24.727Z,35.40
2024-04-08T13:22:26.567Z,35.70
2024-04-08T13:25:29.405Z,34.60
2024-04-08T13:28:32.972Z,34.70
2024-04-08T13:31:34.795Z,36.10
2024-04-08T13:34:36.750Z,35.60
2024-04-08T13:37:38.665Z,35.70
2024-04-08T13:40:40.448Z,35.50
2024-04-08T13:43:45.148Z,35.90
2024-04-08T13:46:47.627Z,34.90
2024-04-08T13:49:49.457Z,35.40
2024-04-08T13:52:51.295Z,35.60
2024-04-08T13:56:03.587Z,35.60
2024-04-08T13:59:05.322Z,34.60
2024-04-08T14:02:07.172Z,34.60
2024-04-08T14:05:09.414Z,34.70
2024-04-08T14:08:11.514Z,34.20
2024-04-08T14:11:13.545Z,34.70
2024-04-08T14:14:15.493Z,35.50
2024-04-08T14:17:18.931Z,34.40
2024-04-08T14:20:21.098Z,33.70
2024-04-08T14:23:23.050Z,34.40
2024-04-08T14:26:24.948Z,34.20
2024-04-08T14:29:27.680Z,34.40
2024-04-08T14:32:29.678Z,35.60
2024-04-08T14:35:31.771Z,35.50
2024-04-08T14:38:55.368Z,34.90
2024-04-08T14:41:55.408Z,34.10
2024-04-08T14:45:02.872Z,34.40
2024-04-08T14:48:08.305Z,33.80
2024-04-08T14:51:10.341Z,33.10
2024-04-08T14:54:12.263Z,33.50
2024-04-08T14:57:14.473Z,33.40
2024-04-08T15:00:19.697Z,32.80
2024-04-08T15:03:21.653Z,32.80
2024-04-08T15:06:23.590Z,33.10
2024-04-08T15:09:25.704Z,33.60
2024-04-08T15:12:27.936Z,33.50
2024-04-08T15:15:29.778Z,34.30
2024-04-08T15:18:31.880Z,33.90
2024-04-08T15:21:34.116Z,34.00
2024-04-08T15:24:35.923Z,34.00
2024-04-08T15:27:38.305Z,33.80
2024-04-08T15:30:41.575Z,33.40
2024-04-08T15:33:43.620Z,33.30
2024-04-08T15:36:45.588Z,33.30
2024-04-08T15:39:49.287Z,33.90
2024-04-08T15:42:51.037Z,33.00
2024-04-08T15:45:55.604Z,32.80
2024-04-08T15:48:57.508Z,32.40
2024-04-08T15:51:59.404Z,32.70
2024-04-08T15:55:01.393Z,33.00
2024-04-08T15:58:04.153Z,33.40
2024-04-08T16:01:07.197Z,33.30
2024-04-08T16:04:10.047Z,33.50
2024-04-08T16:07:12.134Z,33.50
2024-04-08T16:10:17.760Z,33.60
2024-04-08T16:13:19.502Z,34.10
2024-04-08T16:16:21.389Z,33.80
2024-04-08T16:19:23.210Z,33.90
2024-04-08T16:22:29.164Z,34.10
2024-04-08T16:25:32.909Z,33.30
2024-04-08T16:28:35.844Z,33.90
2024-04-08T16:31:37.612Z,34.20
2024-04-08T16:34:39.711Z,34.50
2024-04-08T16:37:41.688Z,35.00
2024-04-08T16:40:44.624Z,35.40
2024-04-08T16:43:48.014Z,35.60
2024-04-08T16:46:51.770Z,36.10
2024-04-08T16:49:53.556Z,35.90
2024-04-08T16:52:55.375Z,35.50
2024-04-08T16:56:04.478Z,35.50
2024-04-08T16:59:06.308Z,35.60
2024-04-08T17:02:08.131Z,35.30
2024-04-08T17:05:09.910Z,35.50
2024-04-08T17:08:11.655Z,36.00
2024-04-08T17:11:14.004Z,36.70
2024-04-08T17:14:15.854Z,36.50
2024-04-08T17:17:17.766Z,37.00
2024-04-08T17:20:19.773Z,36.20
2024-04-08T17:23:21.759Z,36.50
2024-04-08T17:26:23.546Z,37.10
2024-04-08T17:29:25.405Z,38.00
2024-04-08T17:32:29.176Z,38.90
2024-04-08T17:35:31.951Z,39.40
2024-04-08T17:38:40.951Z,39.60
2024-04-08T17:41:42.796Z,39.80
2024-04-08T17:44:45.260Z,40.10
2024-04-08T17:47:47.239Z,40.20
2024-04-08T17:50:56.225Z,39.80
2024-04-08T17:53:58.159Z,40.40
2024-04-08T17:57:00.039Z,40.70
2024-04-08T18:00:02.165Z,41.50
2024-04-08T18:03:04.975Z,41.90
2024-04-08T18:06:22.900Z,42.50
2024-04-08T18:09:24.829Z,42.20
2024-04-08T18:12:26.780Z,43.20
2024-04-08T18:15:34.177Z,43.60
2024-04-08T18:18:36.080Z,43.70
2024-04-08T18:21:41.966Z,44.30
2024-04-08T18:24:43.897Z,43.80
2024-04-08T18:27:45.767Z,45.40
2024-04-08T18:30:47.764Z,44.90
2024-04-08T18:33:51.935Z,46.20
2024-04-08T18:36:54.157Z,46.10
2024-04-08T18:39:56.195Z,46.10
2024-04-08T18:42:58.058Z,47.70
2024-04-08T18:46:01.177Z,47.80
2024-04-08T18:49:03.238Z,47.80
2024-04-08T18:52:05.634Z,48.40
2024-04-08T18:55:07.553Z,49.90
2024-04-08T18:58:09.440Z,49.90
2024-04-08T19:01:20.557Z,50.80
2024-04-08T19:04:24.888Z,51.30
2024-04-08T19:07:27.033Z,52.20
2024-04-08T19:10:28.828Z,53.30
2024-04-08T19:13:30.726Z,52.70
2024-04-08T19:16:32.922Z,53.10
2024-04-08T19:19:34.786Z,53.20
2024-04-08T19:22:37.929Z,53.10
2024-04-08T19:25:39.992Z,52.70
2024-04-08T19:28:42.049Z,53.30
2024-04-08T19:31:43.914Z,52.70
2024-04-08T19:34:48.738Z,52.80
2024-04-08T19:37:50.515Z,53.50
2024-04-08T19:41:18.328Z,54.70
2024-04-08T19:44:20.282Z,56.20
2024-04-08T19:47:22.755Z,58.80
2024-04-08T19:50:25.247Z,59.70
2024-04-08T19:53:27.107Z,60.60
2024-04-08T19:56:30.163Z,58.70
2024-04-08T19:59:32.286Z,57.70
2024-04-08T20:02:34.078Z,57.00
2024-04-08T20:05:36.106Z,56.00
2024-04-08T20:08:37.933Z,56.40
2024-04-08T20:11:39.678Z,54.90
2024-04-08T20:14:41.494Z,54.50
2024-04-08T20:17:43.385Z,53.00
2024-04-08T20:20:50.181Z,51.50
2024-04-08T20:23:52.463Z,50.90
2024-04-08T20:26:54.510Z,50.30
2024-04-08T20:29:56.439Z,50.10
2024-04-08T20:32:59.184Z,49.60
2024-04-08T20:36:06.581Z,49.60
2024-04-08T20:39:08.632Z,54.20
2024-04-08T20:42:10.484Z,55.60
2024-04-08T20:45:12.360Z,55.90
2024-04-08T20:48:14.313Z,55.20
2024-04-08T20:51:16.480Z,54.60
2024-04-08T20:54:18.514Z,54.40
2024-04-08T20:57:20.434Z,54.60
2024-04-08T21:00:22.436Z,54.90
2024-04-08T21:03:24.493Z,55.40
2024-04-08T21:06:27.452Z,55.70
2024-04-08T21:09:30.924Z,55.50
2024-04-08T21:12:33.069Z,55.50
2024-04-08T21:15:35.665Z,55.20
2024-04-08T21:18:38.148Z,55.60
2024-04-08T21:21:40.365Z,55.60
2024-04-08T21:24:42.199Z,55.40
2024-04-08T21:27:44.458Z,56.00
2024-04-08T21:30:50.202Z,56.20
2024-04-08T21:33:52.473Z,55.90
2024-04-08T21:36:54.361Z,56.00
2024-04-08T21:39:56.212Z,55.60
2024-04-08T21:42:58.339Z,55.40
2024-04-08T21:46:04.703Z,55.40
2024-04-08T21:49:06.684Z,55.30
2024-04-08T21:52:08.538Z,55.50
2024-04-08T21:55:12.076Z,56.10
2024-04-08T21:58:13.803Z,59.60
2024-04-08T22:01:17.299Z,62.20
2024-04-08T22:04:19.304Z,62.90
2024-04-08T22:07:21.195Z,61.90
2024-04-08T22:10:23.046Z,58.90
2024-04-08T22:13:25.463Z,57.40
2024-04-08T22:16:27.330Z,58.30
2024-04-08T22:19:29.926Z,58.70
2024-04-08T22:22:32.615Z,57.70
2024-04-08T22:25:37.966Z,57.60
2024-04-08T22:28:39.829Z,57.60
2024-04-08T22:31:41.634Z,58.50
2024-04-08T22:34:43.599Z,58.40
2024-04-08T22:37:45.472Z,59.70
2024-04-08T22:40:47.546Z,62.10
2024-04-08T22:43:49.392Z,62.80
2024-04-08T22:46:51.248Z,62.90
2024-04-08T22:49:53.111Z,62.40
2024-04-08T22:52:54.862Z,63.00
2024-04-08T22:55:56.709Z,63.00
2024-04-08T22:58:58.425Z,62.70
2024-04-08T23:02:00.183Z,63.20
2024-04-08T23:05:02.544Z,64.50
2024-04-08T23:08:04.765Z,64.50
2024-04-08T23:11:07.164Z,63.60
2024-04-08T23:14:08.908Z,64.60
2024-04-08T23:17:11.303Z,63.80
2024-04-08T23:20:13.154Z,63.80
2024-04-08T23:23:15.363Z,66.90
2024-04-08T23:26:18.178Z,65.30
2024-04-08T23:29:22.234Z,64.70
2024-04-08T23:32:24.295Z,64.10
2024-04-08T23:35:26.055Z,64.20
2024-04-08T23:38:29.178Z,64.50
2024-04-08T23:41:31.025Z,64.20
2024-04-08T23:44:32.786Z,64.10
2024-04-08T23:47:35.026Z,64.60
2024-04-08T23:50:37.316Z,64.10
2024-04-08T23:53:39.095Z,64.10
2024-04-08T23:56:40.884Z,64.40
2024-04-08T23:59:43.011Z,64.30
